createdAt,value
2019-03-13T00:00:38.957Z,61.22
2019-03-13T00:03:12.155Z,58.98
2019-03-13T00:05:48.608Z,58.51
2019-03-13T00:11:38.546Z,60.87
2019-03-13T00:14:12.929Z,60.51
2019-03-13T00:17:01.963Z,59.27
2019-03-13T00:19:34.818Z,58.82
2019-03-13T00:22:11.182Z,59.87
2019-03-13T00:24:44.114Z,59.33
2019-03-13T00:27:16.237Z,56.11
2019-03-13T00:29:52.222Z,58.58
2019-03-13T00:32:23.199Z,59.15
2019-03-13T00:34:56.346Z,59.34
2019-03-13T00:37:32.289Z,59.57
2019-03-13T00:40:11.143Z,60.98
2019-03-13T00:42:43.970Z,63.21
2019-03-13T00:45:18.055Z,60.72
2019-03-13T00:47:53.001Z,61.09
2019-03-13T00:50:37.718Z,60.73
2019-03-13T00:53:10.937Z,60.48
2019-03-13T00:55:44.151Z,60.69
2019-03-13T00:58:28.880Z,59.78
2019-03-13T01:01:03.639Z,60.03
2019-03-13T01:03:38.641Z,60.00
2019-03-13T01:06:32.201Z,59.46
2019-03-13T01:09:05.601Z,60.55
2019-03-13T01:11:38.123Z,62.05
2019-03-13T01:14:09.304Z,61.45
2019-03-13T01:16:40.973Z,60.48
2019-03-13T01:19:17.779Z,61.57
2019-03-13T01:22:06.044Z,62.14
2019-03-13T01:24:42.191Z,61.77
2019-03-13T01:27:14.160Z,61.30
2019-03-13T01:29:53.894Z,61.60
2019-03-13T01:32:33.347Z,62.37
2019-03-13T01:35:19.173Z,62.43
2019-03-13T01:37:52.537Z,62.53
2019-03-13T01:40:31.583Z,60.80
2019-03-13T01:43:05.379Z,61.04
2019-03-13T01:45:40.943Z,60.22
2019-03-13T01:48:32.377Z,63.73
2019-03-13T01:51:11.281Z,63.73
2019-03-13T01:53:51.895Z,62.92
2019-03-13T01:56:25.849Z,63.42
2019-03-13T01:59:08.655Z,62.93
2019-03-13T02:01:46.062Z,62.22
2019-03-13T02:04:19.460Z,63.06
2019-03-13T02:06:56.066Z,63.40
2019-03-13T02:12:28.921Z,64.33
2019-03-13T02:17:57.515Z,62.99
2019-03-13T02:20:39.810Z,62.45
2019-03-13T02:23:22.291Z,62.03
2019-03-13T02:25:59.195Z,62.62
2019-03-13T02:28:35.686Z,62.38
2019-03-13T02:31:13.996Z,62.36
2019-03-13T02:33:53.600Z,56.75
2019-03-13T02:36:31.609Z,61.98
2019-03-13T02:39:09.088Z,63.52
2019-03-13T02:41:46.734Z,63.45
2019-03-13T02:44:28.609Z,63.02
2019-03-13T02:47:19.285Z,63.11
2019-03-13T02:49:57.613Z,62.31
2019-03-13T02:52:34.437Z,62.85
2019-03-13T02:55:10.909Z,63.81
2019-03-13T02:57:41.680Z,62.84
2019-03-13T03:00:48.322Z,62.70
2019-03-13T03:03:23.182Z,62.04
2019-03-13T03:06:08.114Z,62.71
2019-03-13T03:09:24.079Z,63.82
2019-03-13T03:12:09.641Z,62.47
2019-03-13T03:14:42.844Z,61.71
2019-03-13T03:17:14.699Z,63.41
2019-03-13T03:20:01.296Z,62.78
2019-03-13T03:22:34.534Z,63.51
2019-03-13T03:25:41.290Z,64.22
2019-03-13T04:20:23.322Z,60.39
2019-03-13T04:36:26.559Z,61.47
2019-03-13T04:38:56.656Z,61.40
2019-03-13T04:41:27.485Z,61.73
2019-03-13T04:43:58.410Z,61.47
2019-03-13T04:46:28.914Z,61.18
2019-03-13T04:49:03.763Z,60.04
2019-03-13T04:51:34.866Z,60.99
2019-03-13T04:54:04.821Z,61.97
2019-03-13T04:56:36.009Z,61.58
2019-03-13T04:59:06.388Z,60.75
2019-03-13T05:01:37.097Z,58.80
2019-03-13T05:04:08.401Z,54.85
2019-03-13T05:06:39.043Z,58.82
2019-03-13T05:09:09.148Z,58.90
2019-03-13T05:11:39.444Z,59.38
2019-03-13T05:14:10.741Z,60.25
2019-03-13T05:16:41.575Z,59.62
2019-03-13T05:19:11.571Z,60.02
2019-03-13T05:21:52.165Z,60.36
2019-03-13T05:24:23.000Z,59.71
2019-03-13T05:26:53.777Z,60.99
2019-03-13T05:29:24.677Z,61.30
2019-03-13T05:31:59.236Z,61.23
2019-03-13T05:34:29.800Z,61.29
2019-03-13T05:37:01.942Z,60.14
2019-03-13T05:39:32.190Z,58.69
2019-03-13T05:42:10.622Z,60.01
2019-03-13T05:44:40.955Z,59.85
2019-03-13T05:47:19.565Z,59.24
2019-03-13T05:49:50.862Z,58.54
2019-03-13T05:52:21.215Z,59.29
2019-03-13T05:54:51.167Z,60.29
2019-03-13T05:57:21.255Z,59.55
2019-03-13T05:59:51.215Z,59.08
2019-03-13T06:02:24.090Z,59.83
2019-03-13T06:04:54.934Z,60.12
2019-03-13T06:07:27.176Z,57.49
2019-03-13T06:10:03.608Z,56.14
2019-03-13T06:12:45.183Z,56.92
2019-03-13T06:15:17.014Z,57.03
2019-03-13T06:17:49.148Z,56.46
2019-03-13T06:20:20.776Z,55.06
2019-03-13T06:22:54.250Z,56.39
2019-03-13T06:25:27.510Z,55.21
2019-03-13T06:28:00.626Z,55.57
2019-03-13T06:30:35.435Z,54.97
2019-03-13T06:33:10.898Z,52.89
2019-03-13T06:35:42.720Z,54.36
2019-03-13T06:38:13.378Z,51.86
2019-03-13T06:40:49.947Z,52.80
2019-03-13T06:43:21.008Z,51.71
2019-03-13T06:45:53.349Z,53.11
2019-03-13T06:48:26.922Z,54.33
2019-03-13T06:51:01.020Z,55.31
2019-03-13T07:03:47.644Z,50.32
2019-03-13T07:06:21.126Z,50.60
2019-03-13T07:18:45.052Z,50.26
2019-03-13T07:21:38.201Z,50.28
2019-03-13T07:24:27.916Z,50.51
2019-03-13T07:27:09.798Z,50.28
2019-03-13T07:32:52.819Z,51.15
2019-03-13T07:35:36.651Z,49.33
2019-03-13T07:38:29.139Z,49.13
2019-03-13T08:57:42.015Z,48.24
2019-03-13T09:00:45.142Z,48.53
2019-03-13T09:06:30.573Z,46.57
2019-03-13T11:22:27.095Z,60.29
2019-03-13T11:47:15.668Z,62.87
2019-03-13T11:53:10.684Z,62.45
2019-03-13T11:55:45.319Z,64.18
2019-03-13T11:58:29.220Z,65.01
2019-03-13T12:01:03.351Z,62.03
2019-03-13T12:03:34.812Z,63.69
2019-03-13T12:06:24.364Z,64.09
2019-03-13T12:08:55.867Z,62.74
2019-03-13T12:11:45.667Z,64.89
2019-03-13T12:14:35.095Z,68.33
2019-03-13T12:17:09.364Z,68.33
2019-03-13T12:19:47.229Z,68.76
2019-03-13T12:22:18.483Z,69.23
2019-03-13T12:25:09.399Z,66.49
2019-03-13T12:27:40.745Z,68.87
2019-03-13T12:30:17.322Z,68.31
2019-03-13T12:32:48.868Z,66.75
2019-03-13T12:35:36.362Z,66.79
2019-03-13T12:38:14.618Z,64.94
2019-03-13T12:40:57.997Z,63.91
2019-03-13T12:43:29.373Z,64.50
2019-03-13T12:46:00.828Z,64.51
2019-03-13T12:48:48.890Z,66.84
2019-03-13T12:51:26.085Z,66.01
2019-03-13T12:54:13.729Z,61.11
2019-03-13T12:56:50.743Z,64.95
2019-03-13T12:59:24.926Z,70.45
2019-03-13T13:02:08.119Z,70.45
2019-03-13T13:04:39.504Z,70.87
2019-03-13T13:07:10.957Z,71.37
2019-03-13T13:09:57.710Z,74.91
2019-03-13T13:12:44.740Z,72.69
2019-03-13T13:15:16.276Z,73.09
2019-03-13T13:17:50.403Z,73.10
2019-03-13T13:20:20.129Z,72.67
2019-03-13T13:22:50.843Z,70.15
2019-03-13T13:25:23.243Z,72.15
2019-03-13T13:27:52.914Z,72.87
2019-03-13T13:30:22.729Z,68.28
2019-03-13T13:32:52.472Z,71.01
2019-03-13T13:35:23.250Z,71.66
2019-03-13T13:37:52.946Z,69.42
2019-03-13T13:40:23.013Z,68.76
2019-03-13T13:42:56.330Z,68.68
2019-03-13T13:45:53.842Z,69.27
2019-03-13T13:48:27.009Z,68.58
2019-03-13T13:51:04.056Z,70.06
2019-03-13T13:53:41.091Z,69.59
2019-03-13T13:56:31.362Z,69.58
2019-03-13T13:59:02.666Z,70.25
2019-03-13T14:01:37.001Z,72.38
2019-03-13T14:04:07.314Z,68.25
2019-03-13T14:06:37.218Z,70.32
2019-03-13T14:09:07.698Z,73.75
2019-03-13T14:11:38.763Z,73.26
2019-03-13T14:14:08.416Z,72.98
2019-03-13T14:16:38.703Z,70.03
2019-03-13T14:19:08.954Z,73.38
2019-03-13T14:21:38.791Z,72.63
2019-03-13T14:24:12.016Z,69.77
2019-03-13T14:26:49.246Z,68.52
2019-03-13T14:29:19.223Z,68.90
2019-03-13T14:31:49.206Z,68.43
2019-03-13T14:34:19.932Z,69.38
2019-03-13T14:36:49.979Z,66.42
2019-03-13T14:39:20.715Z,70.09
2019-03-13T14:41:50.648Z,68.78
2019-03-13T14:46:44.211Z,70.70
2019-03-13T14:49:13.607Z,67.06
2019-03-13T14:51:42.982Z,68.70
2019-03-13T14:54:12.361Z,66.76
2019-03-13T14:56:41.732Z,66.69
2019-03-13T14:59:11.253Z,67.00
2019-03-13T15:01:40.625Z,68.92
2019-03-13T15:04:10.067Z,68.77
2019-03-13T15:06:39.446Z,67.40
2019-03-13T15:09:08.831Z,66.97
2019-03-13T15:11:39.676Z,66.25
2019-03-13T15:14:09.063Z,68.08
2019-03-13T15:16:38.436Z,67.52
2019-03-13T15:19:07.804Z,68.66
2019-03-13T15:21:38.054Z,70.10
2019-03-13T15:24:09.579Z,67.92
2019-03-13T15:26:39.228Z,69.30
2019-03-13T15:29:08.616Z,70.60
2019-03-13T15:31:38.339Z,70.86
2019-03-13T15:34:07.720Z,68.59
2019-03-13T15:36:37.108Z,67.43
2019-03-13T15:39:07.621Z,71.55
2019-03-13T15:41:37.777Z,72.64
2019-03-13T15:44:07.152Z,71.81
2019-03-13T15:46:36.536Z,72.04
2019-03-13T15:49:05.907Z,71.43
2019-03-13T15:51:38.508Z,72.27
2019-03-13T15:54:08.332Z,71.00
2019-03-13T15:56:37.933Z,70.19
2019-03-13T15:59:07.308Z,71.12
2019-03-13T16:01:36.681Z,71.38
2019-03-13T16:04:09.296Z,70.81
2019-03-13T16:06:38.676Z,70.10
2019-03-13T16:09:11.499Z,71.06
2019-03-13T16:11:42.499Z,70.87
2019-03-13T16:14:16.356Z,71.09
2019-03-13T16:16:45.741Z,70.87
2019-03-13T16:19:17.457Z,71.53
2019-03-13T16:21:46.838Z,69.97
2019-03-13T16:24:16.235Z,71.92
2019-03-13T16:26:45.648Z,71.68
2019-03-13T16:29:15.051Z,70.89
2019-03-13T16:31:44.476Z,72.21
2019-03-13T16:34:13.846Z,72.55
2019-03-13T16:36:43.239Z,73.18
2019-03-13T16:39:12.618Z,73.61
2019-03-13T16:41:42.170Z,75.34
2019-03-13T16:44:11.557Z,77.05
2019-03-13T16:46:40.938Z,76.88
2019-03-13T16:49:10.323Z,75.55
2019-03-13T16:51:39.704Z,75.55
2019-03-13T16:54:09.108Z,76.30
2019-03-13T16:56:38.474Z,77.44
2019-03-13T16:59:07.866Z,77.04
2019-03-13T17:01:37.404Z,76.40
2019-03-13T17:04:07.744Z,75.82
2019-03-13T17:06:37.709Z,74.83
2019-03-13T17:09:08.151Z,76.05
2019-03-13T17:11:38.024Z,76.47
2019-03-13T17:14:08.465Z,76.48
2019-03-13T17:16:38.142Z,76.10
2019-03-13T17:19:08.560Z,75.72
2019-03-13T17:21:37.937Z,76.94
2019-03-13T17:24:07.826Z,77.47
2019-03-13T17:26:37.833Z,76.60
2019-03-13T17:29:07.860Z,76.45
2019-03-13T17:31:37.772Z,75.65
2019-03-13T17:34:07.861Z,75.01
2019-03-13T17:36:37.820Z,75.70
2019-03-13T17:39:08.158Z,75.01
2019-03-13T17:41:38.819Z,75.57
2019-03-13T17:44:08.193Z,75.96
2019-03-13T17:46:38.208Z,76.04
2019-03-13T17:49:07.576Z,76.48
2019-03-13T17:51:36.958Z,76.45
2019-03-13T17:54:06.497Z,76.05
2019-03-13T17:56:35.943Z,76.54
2019-03-13T17:59:05.393Z,77.37
2019-03-13T18:01:34.761Z,76.95
2019-03-13T18:04:04.286Z,77.17
2019-03-13T18:06:33.683Z,76.74
2019-03-13T18:09:04.216Z,76.66
2019-03-13T18:11:35.329Z,75.22
2019-03-13T18:14:04.860Z,74.82
2019-03-13T18:16:34.249Z,75.00
2019-03-13T18:19:03.615Z,75.51
2019-03-13T18:21:33.080Z,75.59
2019-03-13T18:24:02.458Z,75.63
2019-03-13T18:26:31.846Z,74.76
2019-03-13T18:29:01.230Z,75.75
2019-03-13T18:31:30.882Z,75.08
2019-03-13T18:34:00.274Z,75.93
2019-03-13T18:36:29.654Z,76.42
2019-03-13T18:38:59.054Z,75.41
2019-03-13T18:41:28.429Z,75.20
2019-03-13T18:43:58.002Z,76.21
2019-03-13T18:46:27.701Z,76.44
2019-03-13T18:49:01.391Z,75.39
2019-03-13T18:51:30.793Z,75.46
2019-03-13T18:54:00.215Z,76.84
2019-03-13T18:56:29.602Z,76.95
2019-03-13T18:58:58.996Z,76.61
2019-03-13T19:01:28.440Z,77.71
2019-03-13T19:03:58.177Z,77.15
2019-03-13T19:06:27.587Z,77.37
2019-03-13T19:08:57.732Z,77.18
2019-03-13T19:11:27.153Z,76.32
2019-03-13T19:13:58.321Z,77.00
2019-03-13T19:16:27.771Z,76.81
2019-03-13T19:18:57.149Z,76.69
2019-03-13T19:21:26.533Z,74.55
2019-03-13T19:23:55.916Z,75.97
2019-03-13T19:26:25.305Z,77.10
2019-03-13T19:28:54.686Z,77.10
2019-03-13T19:31:24.088Z,76.58
2019-03-13T19:33:53.467Z,74.21
2019-03-13T19:36:22.850Z,75.74
2019-03-13T19:38:52.309Z,76.20
2019-03-13T19:41:21.695Z,76.37
2019-03-13T19:43:51.158Z,77.36
2019-03-13T19:46:23.464Z,77.36
2019-03-13T19:48:53.858Z,78.02
2019-03-13T19:51:24.195Z,77.50
2019-03-13T19:54:00.212Z,77.24
2019-03-13T19:56:29.618Z,75.71
2019-03-13T19:58:59.083Z,75.68
2019-03-13T20:01:28.558Z,72.07
2019-03-13T20:03:58.028Z,74.43
2019-03-13T20:06:27.411Z,76.02
2019-03-13T20:08:56.952Z,77.88
2019-03-13T20:11:26.347Z,76.51
2019-03-13T20:13:55.731Z,76.89
2019-03-13T20:16:25.111Z,77.62
2019-03-13T20:18:56.440Z,79.06
2019-03-13T20:21:25.862Z,79.98
2019-03-13T20:23:56.236Z,79.60
2019-03-13T20:26:27.576Z,78.13
2019-03-13T20:28:57.042Z,77.38
2019-03-13T20:31:26.567Z,77.49
2019-03-13T20:33:57.048Z,78.56
2019-03-13T20:36:26.601Z,78.90
2019-03-13T20:38:56.129Z,78.87
2019-03-13T20:41:25.516Z,78.22
2019-03-13T20:43:55.048Z,78.31
2019-03-13T20:46:25.475Z,79.12
2019-03-13T20:48:56.977Z,80.02
2019-03-13T20:51:32.883Z,80.09
2019-03-13T20:54:02.562Z,80.34
2019-03-13T20:56:31.940Z,81.29
2019-03-13T20:59:01.404Z,81.60
2019-03-13T21:01:30.851Z,81.60
2019-03-13T21:04:00.379Z,82.49
2019-03-13T21:06:29.841Z,82.85
2019-03-13T21:09:00.481Z,81.65
2019-03-13T21:11:31.516Z,81.43
2019-03-13T21:14:04.412Z,81.31
2019-03-13T21:16:33.881Z,80.82
2019-03-13T21:19:03.737Z,80.75
2019-03-13T21:21:33.197Z,81.70
2019-03-13T21:24:02.669Z,81.12
2019-03-13T21:26:39.068Z,81.22
2019-03-13T21:29:08.518Z,81.23
2019-03-13T21:31:37.967Z,81.50
2019-03-13T21:34:08.356Z,81.28
2019-03-13T21:36:37.886Z,80.59
2019-03-13T21:39:07.502Z,79.01
2019-03-13T21:41:37.469Z,79.72
2019-03-13T21:44:07.059Z,80.56
2019-03-13T21:46:36.448Z,81.60
2019-03-13T21:49:08.333Z,81.57
2019-03-13T21:51:38.155Z,82.79
2019-03-13T21:54:08.715Z,82.45
2019-03-13T21:56:38.087Z,82.00
2019-03-13T21:59:07.555Z,81.28
2019-03-13T22:01:36.945Z,81.59
2019-03-13T22:04:07.964Z,82.23
2019-03-13T22:06:37.474Z,80.95
2019-03-13T22:09:10.705Z,79.72
2019-03-13T22:11:41.954Z,79.05
2019-03-13T22:14:11.350Z,80.21
2019-03-13T22:16:40.745Z,80.15
2019-03-13T22:19:10.122Z,80.26
2019-03-13T22:21:39.514Z,80.31
2019-03-13T22:24:08.958Z,78.76
2019-03-13T22:26:38.345Z,80.34
2019-03-13T22:29:07.738Z,80.77
2019-03-13T22:31:37.123Z,82.31
2019-03-13T22:34:06.503Z,81.09
2019-03-13T22:36:35.899Z,80.77
2019-03-13T22:39:07.116Z,81.17
2019-03-13T22:41:36.914Z,81.35
2019-03-13T22:44:06.261Z,81.60
2019-03-13T22:46:35.641Z,81.40
2019-03-13T22:49:05.100Z,80.65
2019-03-13T22:51:35.758Z,81.09
2019-03-13T22:54:05.512Z,80.38
2019-03-13T22:56:34.898Z,80.91
2019-03-13T22:59:04.347Z,82.39
2019-03-13T23:01:33.801Z,79.79
2019-03-13T23:04:03.626Z,80.72
2019-03-13T23:06:33.283Z,80.57
2019-03-13T23:09:03.429Z,80.00
2019-03-13T23:11:34.418Z,79.34
2019-03-13T23:14:03.863Z,80.04
2019-03-13T23:16:34.294Z,80.10
2019-03-13T23:19:03.989Z,80.03
2019-03-13T23:21:33.501Z,80.26
2019-03-13T23:24:04.976Z,82.14
2019-03-13T23:26:34.691Z,80.42
2019-03-13T23:29:05.014Z,80.10
2019-03-13T23:31:34.536Z,80.18
2019-03-13T23:34:04.284Z,79.75
2019-03-13T23:36:33.676Z,80.37
2019-03-13T23:39:03.052Z,80.93
2019-03-13T23:41:34.067Z,78.44
2019-03-13T23:44:03.455Z,78.18
2019-03-13T23:46:34.291Z,78.18
2019-03-13T23:49:06.289Z,78.91
2019-03-13T23:51:35.680Z,77.79
2019-03-13T23:54:05.245Z,78.20
2019-03-13T23:56:34.623Z,77.61
2019-03-13T23:59:04.006Z,80.14
